sensor_id;sensor_type;location;lat;lon;timestamp;pressure;altitude;pressure_sealevel;temperature;humidity
31225;BME280;17847;31.524;74.366;2023-08-21T00:00:26;97761.81;;;30.04;nan
31225;BME280;17847;31.524;74.366;2023-08-21T00:02:56;97768.72;;;30.02;nan
31225;BME280;17847;31.524;74.366;2023-08-21T00:05:25;97778.88;;;30.13;nan
31225;BME280;17847;31.524;74.366;2023-08-21T00:07:55;97761.13;;;30.07;nan
31225;BME280;17847;31.524;74.366;2023-08-21T00:10:24;97773.16;;;30.06;nan
31225;BME280;17847;31.524;74.366;2023-08-21T00:12:53;97784.56;;;30.08;nan
31225;BME280;17847;31.524;74.366;2023-08-21T00:15:23;97783.28;;;30.06;nan
31225;BME280;17847;31.524;74.366;2023-08-21T00:18:12;97797.09;;;30.09;nan
31225;BME280;17847;31.524;74.366;2023-08-21T00:20:42;97791.63;;;30.09;nan
31225;BME280;17847;31.524;74.366;2023-08-21T00:23:12;97796.94;;;30.06;nan
31225;BME280;17847;31.524;74.366;2023-08-21T00:25:45;97798.13;;;30.05;nan
31225;BME280;17847;31.524;74.366;2023-08-21T00:28:16;97792.06;;;29.99;nan
31225;BME280;17847;31.524;74.366;2023-08-21T00:30:46;97794.34;;;29.97;nan
31225;BME280;17847;31.524;74.366;2023-08-21T00:33:15;97795.38;;;30.05;nan
31225;BME280;17847;31.524;74.366;2023-08-21T00:35:45;97798.44;;;30.03;nan
31225;BME280;17847;31.524;74.366;2023-08-21T00:38:16;97802.53;;;29.97;nan
31225;BME280;17847;31.524;74.366;2023-08-21T00:40:46;97795.13;;;29.98;nan
31225;BME280;17847;31.524;74.366;2023-08-21T00:43:15;97790.16;;;30.00;nan
31225;BME280;17847;31.524;74.366;2023-08-21T00:45:46;97798.78;;;30.02;nan
31225;BME280;17847;31.524;74.366;2023-08-21T00:48:17;97815.28;;;30.05;nan
31225;BME280;17847;31.524;74.366;2023-08-21T00:50:47;97816.44;;;30.04;nan
31225;BME280;17847;31.524;74.366;2023-08-21T00:53:18;97815.75;;;30.07;nan
31225;BME280;17847;31.524;74.366;2023-08-21T00:55:47;97807.31;;;30.00;nan
31225;BME280;17847;31.524;74.366;2023-08-21T00:58:17;97822.00;;;30.08;nan
31225;BME280;17847;31.524;74.366;2023-08-21T01:00:49;97820.88;;;30.09;nan
31225;BME280;17847;31.524;74.366;2023-08-21T01:03:20;97829.88;;;30.09;nan
31225;BME280;17847;31.524;74.366;2023-08-21T01:05:50;97822.59;;;30.13;nan
31225;BME280;17847;31.524;74.366;2023-08-21T01:08:46;97818.34;;;30.16;nan
31225;BME280;17847;31.524;74.366;2023-08-21T01:11:18;97824.50;;;30.25;nan
31225;BME280;17847;31.524;74.366;2023-08-21T01:14:09;97824.16;;;30.26;nan
31225;BME280;17847;31.524;74.366;2023-08-21T01:16:44;97821.53;;;30.30;nan
31225;BME280;17847;31.524;74.366;2023-08-21T01:19:41;97825.97;;;30.34;nan
31225;BME280;17847;31.524;74.366;2023-08-21T01:22:12;97823.34;;;30.38;nan
31225;BME280;17847;31.524;74.366;2023-08-21T01:24:41;97812.09;;;30.40;nan
31225;BME280;17847;31.524;74.366;2023-08-21T01:27:12;97819.72;;;30.46;nan
31225;BME280;17847;31.524;74.366;2023-08-21T01:29:44;97813.22;;;30.51;nan
31225;BME280;17847;31.524;74.366;2023-08-21T01:32:45;97822.81;;;30.57;nan
31225;BME280;17847;31.524;74.366;2023-08-21T01:35:18;97819.03;;;30.61;nan
31225;BME280;17847;31.524;74.366;2023-08-21T01:37:50;97809.00;;;30.65;nan
31225;BME280;17847;31.524;74.366;2023-08-21T01:40:23;97827.19;;;30.73;nan
31225;BME280;17847;31.524;74.366;2023-08-21T01:42:53;97828.91;;;30.78;nan
31225;BME280;17847;31.524;74.366;2023-08-21T01:45:22;97830.25;;;30.84;nan
31225;BME280;17847;31.524;74.366;2023-08-21T01:47:52;97832.72;;;30.89;nan
31225;BME280;17847;31.524;74.366;2023-08-21T01:50:22;97838.22;;;31.01;nan
31225;BME280;17847;31.524;74.366;2023-08-21T01:52:51;97834.34;;;31.02;nan
31225;BME280;17847;31.524;74.366;2023-08-21T01:55:21;97838.78;;;31.07;nan
31225;BME280;17847;31.524;74.366;2023-08-21T01:57:50;97840.81;;;31.10;nan
31225;BME280;17847;31.524;74.366;2023-08-21T02:00:19;97842.94;;;31.16;nan
31225;BME280;17847;31.524;74.366;2023-08-21T02:02:49;97841.00;;;31.17;nan
31225;BME280;17847;31.524;74.366;2023-08-21T02:05:18;97844.47;;;31.30;nan
31225;BME280;17847;31.524;74.366;2023-08-21T02:07:48;97842.53;;;31.30;nan
31225;BME280;17847;31.524;74.366;2023-08-21T02:10:18;97847.06;;;31.38;nan
31225;BME280;17847;31.524;74.366;2023-08-21T02:13:08;97855.56;;;31.49;nan
31225;BME280;17847;31.524;74.366;2023-08-21T02:15:58;97845.75;;;31.60;nan
31225;BME280;17847;31.524;74.366;2023-08-21T02:18:48;97857.75;;;31.71;nan
31225;BME280;17847;31.524;74.366;2023-08-21T02:21:40;97854.88;;;31.95;nan
31225;BME280;17847;31.524;74.366;2023-08-21T02:24:30;97849.78;;;32.25;nan
31225;BME280;17847;31.524;74.366;2023-08-21T02:27:20;97856.66;;;32.66;nan
31225;BME280;17847;31.524;74.366;2023-08-21T02:30:10;97866.34;;;32.79;nan
31225;BME280;17847;31.524;74.366;2023-08-21T02:33:00;97861.53;;;32.92;nan
31225;BME280;17847;31.524;74.366;2023-08-21T02:35:50;97871.69;;;32.91;nan
31225;BME280;17847;31.524;74.366;2023-08-21T02:38:40;97864.47;;;33.18;nan
31225;BME280;17847;31.524;74.366;2023-08-21T02:41:30;97877.59;;;33.28;nan
31225;BME280;17847;31.524;74.366;2023-08-21T02:44:21;97876.50;;;33.33;nan
31225;BME280;17847;31.524;74.366;2023-08-21T02:47:10;97885.88;;;33.13;nan
31225;BME280;17847;31.524;74.366;2023-08-21T02:50:01;97884.94;;;33.24;nan
31225;BME280;17847;31.524;74.366;2023-08-21T02:52:51;97881.13;;;33.29;nan
31225;BME280;17847;31.524;74.366;2023-08-21T02:55:41;97876.00;;;33.27;nan
31225;BME280;17847;31.524;74.366;2023-08-21T02:58:33;97890.91;;;33.11;nan
31225;BME280;17847;31.524;74.366;2023-08-21T03:01:22;97899.72;;;33.01;nan
31225;BME280;17847;31.524;74.366;2023-08-21T03:04:07;97895.69;;;33.14;nan
31225;BME280;17847;31.524;74.366;2023-08-21T03:06:36;97902.50;;;33.20;nan
31225;BME280;17847;31.524;74.366;2023-08-21T03:09:05;97899.00;;;33.19;nan
31225;BME280;17847;31.524;74.366;2023-08-21T03:11:36;97913.78;;;33.15;nan
31225;BME280;17847;31.524;74.366;2023-08-21T03:14:05;97903.53;;;32.96;nan
31225;BME280;17847;31.524;74.366;2023-08-21T03:16:35;97906.00;;;33.01;nan
31225;BME280;17847;31.524;74.366;2023-08-21T03:19:05;97912.16;;;33.14;nan
31225;BME280;17847;31.524;74.366;2023-08-21T03:21:34;97907.28;;;33.23;nan
31225;BME280;17847;31.524;74.366;2023-08-21T03:24:06;97907.94;;;33.16;nan
31225;BME280;17847;31.524;74.366;2023-08-21T03:26:36;97912.13;;;33.29;nan
31225;BME280;17847;31.524;74.366;2023-08-21T03:29:06;97898.56;;;33.36;nan
31225;BME280;17847;31.524;74.366;2023-08-21T03:31:35;97905.41;;;33.46;nan
31225;BME280;17847;31.524;74.366;2023-08-21T03:34:05;97899.50;;;33.44;nan
31225;BME280;17847;31.524;74.366;2023-08-21T03:36:35;97898.69;;;33.24;nan
31225;BME280;17847;31.524;74.366;2023-08-21T03:39:07;97896.75;;;33.44;nan
31225;BME280;17847;31.524;74.366;2023-08-21T03:41:43;97898.19;;;33.57;nan
31225;BME280;17847;31.524;74.366;2023-08-21T03:44:13;97892.69;;;33.57;nan
31225;BME280;17847;31.524;74.366;2023-08-21T03:46:43;97883.00;;;33.44;nan
31225;BME280;17847;31.524;74.366;2023-08-21T03:49:12;97886.84;;;33.59;nan
31225;BME280;17847;31.524;74.366;2023-08-21T03:51:41;97881.69;;;33.57;nan
31225;BME280;17847;31.524;74.366;2023-08-21T03:54:11;97887.50;;;33.71;nan
31225;BME280;17847;31.524;74.366;2023-08-21T03:56:40;97881.66;;;33.96;nan
31225;BME280;17847;31.524;74.366;2023-08-21T03:59:10;97893.09;;;33.98;nan
31225;BME280;17847;31.524;74.366;2023-08-21T04:01:40;97890.25;;;33.71;nan
31225;BME280;17847;31.524;74.366;2023-08-21T04:04:10;97876.38;;;33.87;nan
31225;BME280;17847;31.524;74.366;2023-08-21T04:06:40;97882.69;;;34.10;nan
31225;BME280;17847;31.524;74.366;2023-08-21T04:09:09;97877.38;;;33.98;nan
31225;BME280;17847;31.524;74.366;2023-08-21T04:11:39;97876.69;;;34.05;nan
31225;BME280;17847;31.524;74.366;2023-08-21T04:14:08;97882.97;;;34.24;nan
31225;BME280;17847;31.524;74.366;2023-08-21T04:16:38;97897.06;;;34.46;nan
31225;BME280;17847;31.524;74.366;2023-08-21T04:19:07;97886.56;;;34.28;nan
31225;BME280;17847;31.524;74.366;2023-08-21T04:21:37;97876.47;;;34.36;nan
31225;BME280;17847;31.524;74.366;2023-08-21T04:24:07;97886.91;;;34.50;nan
31225;BME280;17847;31.524;74.366;2023-08-21T04:26:37;97884.63;;;34.55;nan
31225;BME280;17847;31.524;74.366;2023-08-21T04:29:07;97878.75;;;34.57;nan
31225;BME280;17847;31.524;74.366;2023-08-21T04:31:37;97875.06;;;34.46;nan
31225;BME280;17847;31.524;74.366;2023-08-21T04:34:07;97870.41;;;34.50;nan
31225;BME280;17847;31.524;74.366;2023-08-21T04:36:37;97879.84;;;34.75;nan
31225;BME280;17847;31.524;74.366;2023-08-21T04:39:06;97879.75;;;34.98;nan
31225;BME280;17847;31.524;74.366;2023-08-21T04:41:35;97878.94;;;34.94;nan
31225;BME280;17847;31.524;74.366;2023-08-21T04:44:05;97872.31;;;34.98;nan
31225;BME280;17847;31.524;74.366;2023-08-21T04:46:35;97877.47;;;35.30;nan
31225;BME280;17847;31.524;74.366;2023-08-21T04:49:05;97878.72;;;35.36;nan
31225;BME280;17847;31.524;74.366;2023-08-21T04:51:35;97875.59;;;35.41;nan
31225;BME280;17847;31.524;74.366;2023-08-21T04:54:05;97879.06;;;35.64;nan
31225;BME280;17847;31.524;74.366;2023-08-21T04:56:34;97879.53;;;36.10;nan
31225;BME280;17847;31.524;74.366;2023-08-21T04:59:04;97875.16;;;36.09;nan
31225;BME280;17847;31.524;74.366;2023-08-21T05:01:34;97868.31;;;35.89;nan
31225;BME280;17847;31.524;74.366;2023-08-21T05:04:04;97872.38;;;36.06;nan
31225;BME280;17847;31.524;74.366;2023-08-21T05:06:34;97885.66;;;35.93;nan
31225;BME280;17847;31.524;74.366;2023-08-21T05:09:04;97871.16;;;36.03;nan
31225;BME280;17847;31.524;74.366;2023-08-21T05:11:34;97882.38;;;36.21;nan
31225;BME280;17847;31.524;74.366;2023-08-21T05:14:05;97877.22;;;36.60;nan
31225;BME280;17847;31.524;74.366;2023-08-21T05:16:35;97864.66;;;36.22;nan
31225;BME280;17847;31.524;74.366;2023-08-21T05:19:04;97861.91;;;36.22;nan
31225;BME280;17847;31.524;74.366;2023-08-21T05:21:34;97865.13;;;36.27;nan
31225;BME280;17847;31.524;74.366;2023-08-21T05:24:03;97868.66;;;36.24;nan
31225;BME280;17847;31.524;74.366;2023-08-21T05:26:36;97868.47;;;36.07;nan
31225;BME280;17847;31.524;74.366;2023-08-21T05:29:06;97862.13;;;36.02;nan
31225;BME280;17847;31.524;74.366;2023-08-21T05:31:36;97855.53;;;35.74;nan
31225;BME280;17847;31.524;74.366;2023-08-21T05:34:05;97860.28;;;35.77;nan
31225;BME280;17847;31.524;74.366;2023-08-21T05:36:35;97853.47;;;36.04;nan
31225;BME280;17847;31.524;74.366;2023-08-21T05:39:07;97859.25;;;36.32;nan
31225;BME280;17847;31.524;74.366;2023-08-21T05:41:37;97854.69;;;36.58;nan
31225;BME280;17847;31.524;74.366;2023-08-21T05:44:07;97850.84;;;36.69;nan
31225;BME280;17847;31.524;74.366;2023-08-21T05:46:37;97852.28;;;36.53;nan
31225;BME280;17847;31.524;74.366;2023-08-21T05:49:07;97842.66;;;36.87;nan
31225;BME280;17847;31.524;74.366;2023-08-21T05:51:36;97842.00;;;37.08;nan
31225;BME280;17847;31.524;74.366;2023-08-21T05:54:08;97841.47;;;36.81;nan
31225;BME280;17847;31.524;74.366;2023-08-21T05:56:39;97842.34;;;36.37;nan
31225;BME280;17847;31.524;74.366;2023-08-21T05:59:10;97840.47;;;36.52;nan
31225;BME280;17847;31.524;74.366;2023-08-21T06:01:40;97835.13;;;36.73;nan
31225;BME280;17847;31.524;74.366;2023-08-21T06:04:10;97837.91;;;36.84;nan
31225;BME280;17847;31.524;74.366;2023-08-21T06:06:50;97836.72;;;36.78;nan
31225;BME280;17847;31.524;74.366;2023-08-21T06:09:19;97832.41;;;36.29;nan
31225;BME280;17847;31.524;74.366;2023-08-21T06:11:49;97833.81;;;36.09;nan
31225;BME280;17847;31.524;74.366;2023-08-21T06:14:19;97823.63;;;35.73;nan
31225;BME280;17847;31.524;74.366;2023-08-21T06:16:49;97831.34;;;35.60;nan
31225;BME280;17847;31.524;74.366;2023-08-21T06:19:18;97824.97;;;35.49;nan
31225;BME280;17847;31.524;74.366;2023-08-21T06:21:48;97828.16;;;35.18;nan
31225;BME280;17847;31.524;74.366;2023-08-21T06:24:17;97812.88;;;34.94;nan
31225;BME280;17847;31.524;74.366;2023-08-21T06:26:52;97823.00;;;34.86;nan
31225;BME280;17847;31.524;74.366;2023-08-21T06:29:22;97816.34;;;34.87;nan
31225;BME280;17847;31.524;74.366;2023-08-21T06:31:51;97811.38;;;34.70;nan
31225;BME280;17847;31.524;74.366;2023-08-21T06:34:22;97802.91;;;34.56;nan
31225;BME280;17847;31.524;74.366;2023-08-21T06:36:51;97810.06;;;34.60;nan
31225;BME280;17847;31.524;74.366;2023-08-21T06:39:21;97809.69;;;34.65;nan
31225;BME280;17847;31.524;74.366;2023-08-21T06:41:50;97801.59;;;34.72;nan
31225;BME280;17847;31.524;74.366;2023-08-21T06:44:20;97795.72;;;34.74;nan
31225;BME280;17847;31.524;74.366;2023-08-21T06:46:49;97798.78;;;34.99;nan
31225;BME280;17847;31.524;74.366;2023-08-21T06:49:19;97789.69;;;35.28;nan
31225;BME280;17847;31.524;74.366;2023-08-21T06:51:49;97794.53;;;35.38;nan
31225;BME280;17847;31.524;74.366;2023-08-21T06:54:18;97787.41;;;35.34;nan
31225;BME280;17847;31.524;74.366;2023-08-21T06:56:48;97781.59;;;35.42;nan
31225;BME280;17847;31.524;74.366;2023-08-21T06:59:17;97780.09;;;35.48;nan
31225;BME280;17847;31.524;74.366;2023-08-21T07:01:46;97774.91;;;35.43;nan
31225;BME280;17847;31.524;74.366;2023-08-21T07:04:16;97773.50;;;35.60;nan
31225;BME280;17847;31.524;74.366;2023-08-21T07:06:46;97777.25;;;35.82;nan
31225;BME280;17847;31.524;74.366;2023-08-21T07:09:15;97783.19;;;35.80;nan
31225;BME280;17847;31.524;74.366;2023-08-21T07:11:44;97773.69;;;35.78;nan
31225;BME280;17847;31.524;74.366;2023-08-21T07:14:14;97768.00;;;35.64;nan
31225;BME280;17847;31.524;74.366;2023-08-21T07:16:44;97764.94;;;35.69;nan
31225;BME280;17847;31.524;74.366;2023-08-21T07:19:13;97763.03;;;35.76;nan
31225;BME280;17847;31.524;74.366;2023-08-21T07:21:43;97763.13;;;35.87;nan
31225;BME280;17847;31.524;74.366;2023-08-21T07:24:12;97764.25;;;35.79;nan
31225;BME280;17847;31.524;74.366;2023-08-21T07:26:42;97758.75;;;35.79;nan
31225;BME280;17847;31.524;74.366;2023-08-21T07:29:11;97760.72;;;35.82;nan
31225;BME280;17847;31.524;74.366;2023-08-21T07:31:41;97753.69;;;35.84;nan
31225;BME280;17847;31.524;74.366;2023-08-21T07:34:11;97758.75;;;35.79;nan
31225;BME280;17847;31.524;74.366;2023-08-21T07:36:40;97750.66;;;35.59;nan
31225;BME280;17847;31.524;74.366;2023-08-21T07:39:09;97755.63;;;35.43;nan
31225;BME280;17847;31.524;74.366;2023-08-21T07:41:38;97754.41;;;35.41;nan
31225;BME280;17847;31.524;74.366;2023-08-21T07:44:08;97752.78;;;35.33;nan
31225;BME280;17847;31.524;74.366;2023-08-21T07:46:37;97745.88;;;35.49;nan
31225;BME280;17847;31.524;74.366;2023-08-21T07:49:06;97748.50;;;35.79;nan
31225;BME280;17847;31.524;74.366;2023-08-21T07:51:36;97757.25;;;35.88;nan
31225;BME280;17847;31.524;74.366;2023-08-21T07:54:06;97749.25;;;35.76;nan
31225;BME280;17847;31.524;74.366;2023-08-21T07:56:37;97744.03;;;35.64;nan
31225;BME280;17847;31.524;74.366;2023-08-21T07:59:08;97742.00;;;35.57;nan
31225;BME280;17847;31.524;74.366;2023-08-21T08:01:38;97739.13;;;35.43;nan
31225;BME280;17847;31.524;74.366;2023-08-21T08:04:08;97743.72;;;35.32;nan
31225;BME280;17847;31.524;74.366;2023-08-21T08:06:39;97730.19;;;35.17;nan
31225;BME280;17847;31.524;74.366;2023-08-21T08:09:09;97732.44;;;35.11;nan
31225;BME280;17847;31.524;74.366;2023-08-21T08:11:38;97723.56;;;35.21;nan
31225;BME280;17847;31.524;74.366;2023-08-21T08:14:08;97719.66;;;35.26;nan
31225;BME280;17847;31.524;74.366;2023-08-21T08:16:37;97715.34;;;35.28;nan
31225;BME280;17847;31.524;74.366;2023-08-21T08:19:07;97709.78;;;35.21;nan
31225;BME280;17847;31.524;74.366;2023-08-21T08:21:36;97714.84;;;35.15;nan
31225;BME280;17847;31.524;74.366;2023-08-21T08:24:06;97704.56;;;35.12;nan
31225;BME280;17847;31.524;74.366;2023-08-21T08:26:35;97691.28;;;35.18;nan
31225;BME280;17847;31.524;74.366;2023-08-21T08:29:05;97691.34;;;35.25;nan
31225;BME280;17847;31.524;74.366;2023-08-21T08:31:34;97687.13;;;35.38;nan
31225;BME280;17847;31.524;74.366;2023-08-21T08:34:04;97670.56;;;35.35;nan
31225;BME280;17847;31.524;74.366;2023-08-21T08:36:33;97675.28;;;35.34;nan
31225;BME280;17847;31.524;74.366;2023-08-21T08:39:02;97672.56;;;35.38;nan
31225;BME280;17847;31.524;74.366;2023-08-21T08:41:33;97667.13;;;35.45;nan
31225;BME280;17847;31.524;74.366;2023-08-21T08:44:08;97668.22;;;35.37;nan
31225;BME280;17847;31.524;74.366;2023-08-21T08:46:38;97656.81;;;35.35;nan
31225;BME280;17847;31.524;74.366;2023-08-21T08:49:07;97654.53;;;35.44;nan
31225;BME280;17847;31.524;74.366;2023-08-21T08:51:38;97646.66;;;35.46;nan
31225;BME280;17847;31.524;74.366;2023-08-21T08:54:10;97643.91;;;35.46;nan
31225;BME280;17847;31.524;74.366;2023-08-21T08:56:40;97646.75;;;35.56;nan
31225;BME280;17847;31.524;74.366;2023-08-21T08:59:10;97646.88;;;35.71;nan
31225;BME280;17847;31.524;74.366;2023-08-21T09:01:40;97647.34;;;35.80;nan
31225;BME280;17847;31.524;74.366;2023-08-21T09:04:11;97651.28;;;35.82;nan
31225;BME280;17847;31.524;74.366;2023-08-21T09:06:40;97656.34;;;35.77;nan
31225;BME280;17847;31.524;74.366;2023-08-21T09:09:10;97647.69;;;35.71;nan
31225;BME280;17847;31.524;74.366;2023-08-21T09:11:46;97638.13;;;35.62;nan
31225;BME280;17847;31.524;74.366;2023-08-21T09:14:26;97625.56;;;35.64;nan
31225;BME280;17847;31.524;74.366;2023-08-21T09:17:00;97630.34;;;35.71;nan
31225;BME280;17847;31.524;74.366;2023-08-21T09:19:35;97620.50;;;35.73;nan
31225;BME280;17847;31.524;74.366;2023-08-21T09:22:15;97617.44;;;35.85;nan
31225;BME280;17847;31.524;74.366;2023-08-21T09:25:07;97605.25;;;35.90;nan
31225;BME280;17847;31.524;74.366;2023-08-21T09:27:39;97609.19;;;35.89;nan
31225;BME280;17847;31.524;74.366;2023-08-21T09:30:10;97598.97;;;35.93;nan
31225;BME280;17847;31.524;74.366;2023-08-21T09:33:00;97593.84;;;35.95;nan
31225;BME280;17847;31.524;74.366;2023-08-21T09:35:33;97589.94;;;35.99;nan
31225;BME280;17847;31.524;74.366;2023-08-21T09:38:03;97599.00;;;36.00;nan
31225;BME280;17847;31.524;74.366;2023-08-21T09:40:33;97587.56;;;35.94;nan
31225;BME280;17847;31.524;74.366;2023-08-21T09:43:03;97591.47;;;35.90;nan
31225;BME280;17847;31.524;74.366;2023-08-21T09:45:33;97593.50;;;36.00;nan
31225;BME280;17847;31.524;74.366;2023-08-21T09:48:04;97594.28;;;36.00;nan
31225;BME280;17847;31.524;74.366;2023-08-21T09:50:34;97582.09;;;35.98;nan
31225;BME280;17847;31.524;74.366;2023-08-21T09:53:06;97585.16;;;35.89;nan
31225;BME280;17847;31.524;74.366;2023-08-21T09:55:39;97577.66;;;35.83;nan
31225;BME280;17847;31.524;74.366;2023-08-21T09:58:09;97576.84;;;35.75;nan
31225;BME280;17847;31.524;74.366;2023-08-21T10:00:40;97581.94;;;35.77;nan
31225;BME280;17847;31.524;74.366;2023-08-21T10:03:11;97578.03;;;35.78;nan
31225;BME280;17847;31.524;74.366;2023-08-21T10:05:41;97572.16;;;35.86;nan
31225;BME280;17847;31.524;74.366;2023-08-21T10:08:12;97572.94;;;35.87;nan
31225;BME280;17847;31.524;74.366;2023-08-21T10:10:44;97577.28;;;35.84;nan
31225;BME280;17847;31.524;74.366;2023-08-21T10:13:13;97573.75;;;35.87;nan
31225;BME280;17847;31.524;74.366;2023-08-21T10:15:44;97569.41;;;35.86;nan
31225;BME280;17847;31.524;74.366;2023-08-21T10:18:24;97564.66;;;35.80;nan
31225;BME280;17847;31.524;74.366;2023-08-21T10:20:53;97563.88;;;35.79;nan
31225;BME280;17847;31.524;74.366;2023-08-21T10:23:28;97558.72;;;35.71;nan
31225;BME280;17847;31.524;74.366;2023-08-21T10:26:00;97562.13;;;35.53;nan
31225;BME280;17847;31.524;74.366;2023-08-21T10:31:32;97564.34;;;35.37;nan
31225;BME280;17847;31.524;74.366;2023-08-21T10:34:11;97559.19;;;35.29;nan
31225;BME280;17847;31.524;74.366;2023-08-21T10:39:24;97553.63;;;35.18;nan
31225;BME280;17847;31.524;74.366;2023-08-21T10:41:54;97556.69;;;35.13;nan
31225;BME280;17847;31.524;74.366;2023-08-21T10:47:22;97556.66;;;35.09;nan
31225;BME280;17847;31.524;74.366;2023-08-21T10:49:54;97557.00;;;35.04;nan
31225;BME280;17847;31.524;74.366;2023-08-21T10:52:26;97555.41;;;35.00;nan
31225;BME280;17847;31.524;74.366;2023-08-21T10:54:58;97551.38;;;34.90;nan
31225;BME280;17847;31.524;74.366;2023-08-21T10:57:31;97548.53;;;34.80;nan
31225;BME280;17847;31.524;74.366;2023-08-21T11:00:08;97548.47;;;34.72;nan
31225;BME280;17847;31.524;74.366;2023-08-21T11:02:40;97548.88;;;34.75;nan
31225;BME280;17847;31.524;74.366;2023-08-21T11:05:11;97536.72;;;34.79;nan
31225;BME280;17847;31.524;74.366;2023-08-21T11:07:45;97543.81;;;34.80;nan
31225;BME280;17847;31.524;74.366;2023-08-21T11:10:23;97545.75;;;34.76;nan
31225;BME280;17847;31.524;74.366;2023-08-21T11:12:54;97531.81;;;34.62;nan
31225;BME280;17847;31.524;74.366;2023-08-21T11:15:28;97531.78;;;34.55;nan
31225;BME280;17847;31.524;74.366;2023-08-21T11:18:01;97536.41;;;34.47;nan
31225;BME280;17847;31.524;74.366;2023-08-21T11:20:35;97531.75;;;34.51;nan
31225;BME280;17847;31.524;74.366;2023-08-21T11:23:06;97517.59;;;34.53;nan
31225;BME280;17847;31.524;74.366;2023-08-21T11:25:38;97528.56;;;34.49;nan
31225;BME280;17847;31.524;74.366;2023-08-21T11:28:08;97529.31;;;34.46;nan
31225;BME280;17847;31.524;74.366;2023-08-21T11:30:38;97521.03;;;34.43;nan
31225;BME280;17847;31.524;74.366;2023-08-21T11:33:09;97519.44;;;34.38;nan
31225;BME280;17847;31.524;74.366;2023-08-21T11:35:39;97509.16;;;34.35;nan
31225;BME280;17847;31.524;74.366;2023-08-21T11:38:19;97507.97;;;34.33;nan
31225;BME280;17847;31.524;74.366;2023-08-21T11:40:54;97500.06;;;34.27;nan
31225;BME280;17847;31.524;74.366;2023-08-21T11:43:41;97505.19;;;34.29;nan
31225;BME280;17847;31.524;74.366;2023-08-21T11:46:11;97500.84;;;34.28;nan
31225;BME280;17847;31.524;74.366;2023-08-21T11:48:41;97499.22;;;34.23;nan
31225;BME280;17847;31.524;74.366;2023-08-21T11:51:11;97491.31;;;34.18;nan
31225;BME280;17847;31.524;74.366;2023-08-21T11:53:41;97496.44;;;34.16;nan
31225;BME280;17847;31.524;74.366;2023-08-21T11:56:16;97496.34;;;34.13;nan
31225;BME280;17847;31.524;74.366;2023-08-21T11:58:49;97497.47;;;34.08;nan
31225;BME280;17847;31.524;74.366;2023-08-21T12:01:20;97508.41;;;34.05;nan
31225;BME280;17847;31.524;74.366;2023-08-21T12:03:50;97498.16;;;33.98;nan
31225;BME280;17847;31.524;74.366;2023-08-21T12:06:24;97509.06;;;33.95;nan
31225;BME280;17847;31.524;74.366;2023-08-21T12:09:01;97502.03;;;33.94;nan
31225;BME280;17847;31.524;74.366;2023-08-21T12:11:33;97513.38;;;33.92;nan
31225;BME280;17847;31.524;74.366;2023-08-21T12:14:05;97505.50;;;33.91;nan
31225;BME280;17847;31.524;74.366;2023-08-21T12:16:34;97503.97;;;33.93;nan
31225;BME280;17847;31.524;74.366;2023-08-21T12:19:04;97509.47;;;33.93;nan
31225;BME280;17847;31.524;74.366;2023-08-21T12:21:33;97503.59;;;33.95;nan
31225;BME280;17847;31.524;74.366;2023-08-21T12:24:05;97510.31;;;33.97;nan
31225;BME280;17847;31.524;74.366;2023-08-21T12:26:35;97503.22;;;33.96;nan
31225;BME280;17847;31.524;74.366;2023-08-21T12:29:16;97502.84;;;33.98;nan
31225;BME280;17847;31.524;74.366;2023-08-21T12:31:46;97502.81;;;33.94;nan
31225;BME280;17847;31.524;74.366;2023-08-21T12:34:16;97504.00;;;33.97;nan
31225;BME280;17847;31.524;74.366;2023-08-21T12:36:46;97500.84;;;33.95;nan
31225;BME280;17847;31.524;74.366;2023-08-21T12:39:15;97504.72;;;33.90;nan
31225;BME280;17847;31.524;74.366;2023-08-21T12:41:46;97498.00;;;33.88;nan
31225;BME280;17847;31.524;74.366;2023-08-21T12:44:15;97495.25;;;33.88;nan
31225;BME280;17847;31.524;74.366;2023-08-21T12:46:45;97498.78;;;33.84;nan
31225;BME280;17847;31.524;74.366;2023-08-21T12:49:14;97503.09;;;33.86;nan
31225;BME280;17847;31.524;74.366;2023-08-21T12:51:44;97506.97;;;33.81;nan
31225;BME280;17847;31.524;74.366;2023-08-21T12:54:13;97504.16;;;33.77;nan
31225;BME280;17847;31.524;74.366;2023-08-21T12:56:43;97504.88;;;33.71;nan
31225;BME280;17847;31.524;74.366;2023-08-21T12:59:15;97509.53;;;33.67;nan
31225;BME280;17847;31.524;74.366;2023-08-21T13:01:47;97504.69;;;33.60;nan
31225;BME280;17847;31.524;74.366;2023-08-21T13:04:16;97504.25;;;33.55;nan
31225;BME280;17847;31.524;74.366;2023-08-21T13:06:46;97502.22;;;33.52;nan
31225;BME280;17847;31.524;74.366;2023-08-21T13:09:16;97503.34;;;33.47;nan
31225;BME280;17847;31.524;74.366;2023-08-21T13:11:45;97506.03;;;33.44;nan
31225;BME280;17847;31.524;74.366;2023-08-21T13:14:15;97510.66;;;33.36;nan
31225;BME280;17847;31.524;74.366;2023-08-21T13:16:44;97505.13;;;33.32;nan
31225;BME280;17847;31.524;74.366;2023-08-21T13:19:13;97507.38;;;33.27;nan
31225;BME280;17847;31.524;74.366;2023-08-21T13:21:43;97505.34;;;33.24;nan
31225;BME280;17847;31.524;74.366;2023-08-21T13:24:13;97507.25;;;33.20;nan
31225;BME280;17847;31.524;74.366;2023-08-21T13:26:42;97496.97;;;33.13;nan
31225;BME280;17847;31.524;74.366;2023-08-21T13:29:12;97496.47;;;33.08;nan
31225;BME280;17847;31.524;74.366;2023-08-21T13:31:42;97503.13;;;33.07;nan
31225;BME280;17847;31.524;74.366;2023-08-21T13:34:11;97502.66;;;33.01;nan
31225;BME280;17847;31.524;74.366;2023-08-21T13:36:41;97497.53;;;33.00;nan
31225;BME280;17847;31.524;74.366;2023-08-21T13:39:10;97507.31;;;32.97;nan
31225;BME280;17847;31.524;74.366;2023-08-21T13:41:42;97509.56;;;32.91;nan
31225;BME280;17847;31.524;74.366;2023-08-21T13:44:11;97516.19;;;32.90;nan